sensor_id;sensor_type;location;lat;lon;timestamp;pressure;altitude;pressure_sealevel;temperature;humidity
7660;BME280;3872;47.902;8.162;2023-05-12T00:02:11;91559.41;;;13.64;100.00
7660;BME280;3872;47.902;8.162;2023-05-12T00:04:38;91552.31;;;13.77;100.00
7660;BME280;3872;47.902;8.162;2023-05-12T00:07:05;91550.25;;;13.82;100.00
7660;BME280;3872;47.902;8.162;2023-05-12T00:09:32;91547.63;;;13.82;100.00
7660;BME280;3872;47.902;8.162;2023-05-12T00:11:58;91552.69;;;13.66;100.00
7660;BME280;3872;47.902;8.162;2023-05-12T00:14:25;91548.28;;;12.94;100.00
7660;BME280;3872;47.902;8.162;2023-05-12T00:16:52;91545.72;;;12.51;100.00
7660;BME280;3872;47.902;8.162;2023-05-12T00:19:20;91546.84;;;12.42;100.00
7660;BME280;3872;47.902;8.162;2023-05-12T00:21:46;91554.59;;;12.04;100.00
7660;BME280;3872;47.902;8.162;2023-05-12T00:24:13;91553.38;;;12.36;100.00
7660;BME280;3872;47.902;8.162;2023-05-12T00:26:40;91553.06;;;13.10;100.00
7660;BME280;3872;47.902;8.162;2023-05-12T00:29:06;91541.28;;;13.45;100.00
7660;BME280;3872;47.902;8.162;2023-05-12T00:31:33;91539.19;;;13.59;100.00
7660;BME280;3872;47.902;8.162;2023-05-12T00:33:59;91541.91;;;13.71;100.00
7660;BME280;3872;47.902;8.162;2023-05-12T00:36:27;91535.22;;;13.07;100.00
7660;BME280;3872;47.902;8.162;2023-05-12T00:38:54;91533.69;;;12.97;100.00
7660;BME280;3872;47.902;8.162;2023-05-12T00:41:21;91536.94;;;12.94;100.00
7660;BME280;3872;47.902;8.162;2023-05-12T00:43:47;91538.66;;;12.99;100.00
7660;BME280;3872;47.902;8.162;2023-05-12T00:46:14;91526.88;;;13.34;100.00
7660;BME280;3872;47.902;8.162;2023-05-12T00:48:41;91524.38;;;13.38;100.00
7660;BME280;3872;47.902;8.162;2023-05-12T00:51:07;91523.72;;;13.03;100.00
7660;BME280;3872;47.902;8.162;2023-05-12T00:53:35;91519.06;;;13.00;100.00
7660;BME280;3872;47.902;8.162;2023-05-12T00:56:02;91514.81;;;12.61;100.00
7660;BME280;3872;47.902;8.162;2023-05-12T00:58:29;91519.91;;;12.74;100.00
7660;BME280;3872;47.902;8.162;2023-05-12T01:00:56;91506.63;;;12.36;100.00
7660;BME280;3872;47.902;8.162;2023-05-12T01:03:23;91515.56;;;12.78;100.00
7660;BME280;3872;47.902;8.162;2023-05-12T01:05:55;91513.44;;;13.10;100.00
7660;BME280;3872;47.902;8.162;2023-05-12T01:08:25;91514.94;;;12.81;100.00
7660;BME280;3872;47.902;8.162;2023-05-12T01:10:53;91517.09;;;12.79;100.00
7660;BME280;3872;47.902;8.162;2023-05-12T01:13:19;91517.44;;;12.69;100.00
7660;BME280;3872;47.902;8.162;2023-05-12T01:15:47;91515.81;;;12.94;100.00
7660;BME280;3872;47.902;8.162;2023-05-12T01:18:17;91519.25;;;12.86;100.00
7660;BME280;3872;47.902;8.162;2023-05-12T01:20:45;91512.69;;;13.01;100.00
7660;BME280;3872;47.902;8.162;2023-05-12T01:23:16;91514.88;;;12.99;100.00
7660;BME280;3872;47.902;8.162;2023-05-12T01:25:45;91513.63;;;12.96;100.00
7660;BME280;3872;47.902;8.162;2023-05-12T01:28:13;91517.44;;;12.78;100.00
7660;BME280;3872;47.902;8.162;2023-05-12T01:30:41;91513.03;;;12.90;100.00
7660;BME280;3872;47.902;8.162;2023-05-12T01:33:11;91520.97;;;12.82;100.00
7660;BME280;3872;47.902;8.162;2023-05-12T01:35:38;91520.69;;;12.83;100.00
7660;BME280;3872;47.902;8.162;2023-05-12T01:38:05;91516.59;;;12.86;100.00
7660;BME280;3872;47.902;8.162;2023-05-12T01:40:35;91509.38;;;13.12;100.00
7660;BME280;3872;47.902;8.162;2023-05-12T01:43:01;91515.16;;;13.14;100.00
7660;BME280;3872;47.902;8.162;2023-05-12T01:45:32;91514.34;;;13.22;100.00
7660;BME280;3872;47.902;8.162;2023-05-12T01:47:59;91512.97;;;13.16;100.00
7660;BME280;3872;47.902;8.162;2023-05-12T01:50:26;91510.47;;;13.11;100.00
7660;BME280;3872;47.902;8.162;2023-05-12T01:52:53;91514.53;;;12.62;100.00
7660;BME280;3872;47.902;8.162;2023-05-12T01:55:21;91519.25;;;12.86;100.00
7660;BME280;3872;47.902;8.162;2023-05-12T01:57:51;91512.25;;;12.90;100.00
7660;BME280;3872;47.902;8.162;2023-05-12T02:00:18;91520.97;;;12.82;100.00
7660;BME280;3872;47.902;8.162;2023-05-12T02:02:48;91521.88;;;12.94;100.00
7660;BME280;3872;47.902;8.162;2023-05-12T02:05:15;91520.25;;;13.11;100.00
7660;BME280;3872;47.902;8.162;2023-05-12T02:07:45;91523.81;;;13.23;100.00
7660;BME280;3872;47.902;8.162;2023-05-12T02:10:11;91520.03;;;12.86;100.00
7660;BME280;3872;47.902;8.162;2023-05-12T02:12:38;91518.22;;;12.70;100.00
7660;BME280;3872;47.902;8.162;2023-05-12T02:15:05;91518.00;;;12.92;100.00
7660;BME280;3872;47.902;8.162;2023-05-12T02:17:35;91517.25;;;12.91;100.00
7660;BME280;3872;47.902;8.162;2023-05-12T02:20:07;91517.06;;;12.97;100.00
7660;BME280;3872;47.902;8.162;2023-05-12T02:22:36;91517.16;;;13.09;100.00
7660;BME280;3872;47.902;8.162;2023-05-12T02:25:03;91520.66;;;12.92;100.00
7660;BME280;3872;47.902;8.162;2023-05-12T02:27:30;91514.75;;;12.86;100.00
7660;BME280;3872;47.902;8.162;2023-05-12T02:29:57;91518.50;;;12.85;100.00
7660;BME280;3872;47.902;8.162;2023-05-12T02:32:24;91518.81;;;12.84;100.00
7660;BME280;3872;47.902;8.162;2023-05-12T02:34:52;91517.38;;;12.95;100.00
7660;BME280;3872;47.902;8.162;2023-05-12T02:37:20;91523.91;;;12.89;100.00
7660;BME280;3872;47.902;8.162;2023-05-12T02:39:46;91520.69;;;12.83;100.00
7660;BME280;3872;47.902;8.162;2023-05-12T02:42:13;91527.34;;;12.81;100.00
7660;BME280;3872;47.902;8.162;2023-05-12T02:44:40;91523.34;;;12.66;100.00
7660;BME280;3872;47.902;8.162;2023-05-12T02:47:06;91520.19;;;12.90;100.00
7660;BME280;3872;47.902;8.162;2023-05-12T02:49:33;91518.44;;;12.94;100.00
7660;BME280;3872;47.902;8.162;2023-05-12T02:52:00;91521.88;;;12.94;100.00
7660;BME280;3872;47.902;8.162;2023-05-12T02:54:28;91506.78;;;13.04;100.00
7660;BME280;3872;47.902;8.162;2023-05-12T02:56:55;91522.72;;;12.78;100.00
7660;BME280;3872;47.902;8.162;2023-05-12T02:59:22;91525.78;;;12.88;100.00
7660;BME280;3872;47.902;8.162;2023-05-12T03:01:49;91514.50;;;13.17;100.00
7660;BME280;3872;47.902;8.162;2023-05-12T03:04:16;91520.81;;;12.87;100.00
7660;BME280;3872;47.902;8.162;2023-05-12T03:06:42;91521.28;;;12.80;100.00
7660;BME280;3872;47.902;8.162;2023-05-12T03:09:09;91523.59;;;12.90;100.00
7660;BME280;3872;47.902;8.162;2023-05-12T03:11:39;91511.88;;;13.17;100.00
7660;BME280;3872;47.902;8.162;2023-05-12T03:14:05;91514.22;;;12.64;100.00
7660;BME280;3872;47.902;8.162;2023-05-12T03:16:32;91510.97;;;13.13;100.00
7660;BME280;3872;47.902;8.162;2023-05-12T03:18:59;91511.38;;;13.24;100.00
7660;BME280;3872;47.902;8.162;2023-05-12T03:21:28;91506.75;;;13.21;100.00
7660;BME280;3872;47.902;8.162;2023-05-12T03:23:54;91507.94;;;13.32;100.00
7660;BME280;3872;47.902;8.162;2023-05-12T03:26:21;91508.22;;;13.30;100.00
7660;BME280;3872;47.902;8.162;2023-05-12T03:28:50;91502.94;;;13.60;100.00
7660;BME280;3872;47.902;8.162;2023-05-12T03:31:17;91507.94;;;13.32;100.00
7660;BME280;3872;47.902;8.162;2023-05-12T03:33:44;91500.81;;;13.24;100.00
7660;BME280;3872;47.902;8.162;2023-05-12T03:36:10;91498.31;;;13.27;100.00
7660;BME280;3872;47.902;8.162;2023-05-12T03:38:37;91510.38;;;13.37;100.00
7660;BME280;3872;47.902;8.162;2023-05-12T03:41:05;91499.03;;;13.37;100.00
7660;BME280;3872;47.902;8.162;2023-05-12T03:43:32;91503.53;;;13.65;100.00
7660;BME280;3872;47.902;8.162;2023-05-12T03:46:01;91501.25;;;13.35;100.00
7660;BME280;3872;47.902;8.162;2023-05-12T03:48:28;91498.53;;;13.43;100.00
7660;BME280;3872;47.902;8.162;2023-05-12T03:50:55;91500.28;;;13.39;100.00
7660;BME280;3872;47.902;8.162;2023-05-12T03:53:21;91495.72;;;13.48;100.00
7660;BME280;3872;47.902;8.162;2023-05-12T03:55:49;91498.72;;;13.38;100.00
7660;BME280;3872;47.902;8.162;2023-05-12T03:58:15;91503.19;;;13.08;100.00
7660;BME280;3872;47.902;8.162;2023-05-12T04:00:42;91497.44;;;13.06;100.00
7660;BME280;3872;47.902;8.162;2023-05-12T04:03:11;91494.13;;;13.26;100.00
7660;BME280;3872;47.902;8.162;2023-05-12T04:05:38;91487.09;;;13.30;100.00
7660;BME280;3872;47.902;8.162;2023-05-12T04:08:06;91494.78;;;13.15;100.00
7660;BME280;3872;47.902;8.162;2023-05-12T04:10:37;91488.09;;;13.47;100.00
7660;BME280;3872;47.902;8.162;2023-05-12T04:13:04;91487.59;;;13.53;100.00
7660;BME280;3872;47.902;8.162;2023-05-12T04:15:30;91480.75;;;13.52;100.00
7660;BME280;3872;47.902;8.162;2023-05-12T04:17:57;91490.25;;;13.53;100.00
7660;BME280;3872;47.902;8.162;2023-05-12T04:20:25;91488.53;;;13.28;100.00
7660;BME280;3872;47.902;8.162;2023-05-12T04:22:51;91491.78;;;13.25;100.00
7660;BME280;3872;47.902;8.162;2023-05-12T04:25:18;91482.22;;;13.70;100.00
7660;BME280;3872;47.902;8.162;2023-05-12T04:27:45;91488.31;;;13.62;100.00
7660;BME280;3872;47.902;8.162;2023-05-12T04:30:12;91486.69;;;13.49;100.00
7660;BME280;3872;47.902;8.162;2023-05-12T04:32:40;91486.97;;;13.77;100.00
7660;BME280;3872;47.902;8.162;2023-05-12T04:35:07;91491.63;;;13.80;100.00
7660;BME280;3872;47.902;8.162;2023-05-12T04:37:36;91482.38;;;13.86;100.00
7660;BME280;3872;47.902;8.162;2023-05-12T04:40:03;91490.16;;;13.70;100.00
7660;BME280;3872;47.902;8.162;2023-05-12T04:42:31;91496.22;;;13.71;100.00
7660;BME280;3872;47.902;8.162;2023-05-12T04:44:58;91499.13;;;13.99;100.00
7660;BME280;3872;47.902;8.162;2023-05-12T04:47:24;91493.56;;;13.92;100.00
7660;BME280;3872;47.902;8.162;2023-05-12T04:49:51;91504.66;;;14.06;100.00
7660;BME280;3872;47.902;8.162;2023-05-12T04:52:17;91504.28;;;13.45;100.00
7660;BME280;3872;47.902;8.162;2023-05-12T04:54:46;91513.75;;;12.53;100.00
7660;BME280;3872;47.902;8.162;2023-05-12T04:57:13;91509.56;;;13.07;100.00
7660;BME280;3872;47.902;8.162;2023-05-12T04:59:40;91509.09;;;13.43;100.00
7660;BME280;3872;47.902;8.162;2023-05-12T05:02:06;91518.00;;;12.92;100.00
7660;BME280;3872;47.902;8.162;2023-05-12T05:04:33;91524.72;;;12.81;100.00
7660;BME280;3872;47.902;8.162;2023-05-12T05:07:00;91523.13;;;12.97;100.00
7660;BME280;3872;47.902;8.162;2023-05-12T05:09:27;91519.81;;;12.45;100.00
7660;BME280;3872;47.902;8.162;2023-05-12T05:11:55;91516.53;;;13.12;100.00
7660;BME280;3872;47.902;8.162;2023-05-12T05:14:22;91524.84;;;13.40;100.00
7660;BME280;3872;47.902;8.162;2023-05-12T05:16:48;91522.44;;;13.17;100.00
7660;BME280;3872;47.902;8.162;2023-05-12T05:19:15;91535.53;;;13.14;100.00
7660;BME280;3872;47.902;8.162;2023-05-12T05:21:41;91521.25;;;13.65;100.00
7660;BME280;3872;47.902;8.162;2023-05-12T05:24:09;91516.91;;;13.90;100.00
7660;BME280;3872;47.902;8.162;2023-05-12T05:26:37;91518.16;;;14.13;100.00
7660;BME280;3872;47.902;8.162;2023-05-12T05:29:05;91512.25;;;14.07;100.00
7660;BME280;3872;47.902;8.162;2023-05-12T05:31:32;91518.41;;;13.49;100.00
7660;BME280;3872;47.902;8.162;2023-05-12T05:34:00;91519.09;;;13.67;100.00
7660;BME280;3872;47.902;8.162;2023-05-12T05:36:28;91522.13;;;13.78;100.00
7660;BME280;3872;47.902;8.162;2023-05-12T05:38:55;91526.56;;;13.86;100.00
7660;BME280;3872;47.902;8.162;2023-05-12T05:41:21;91532.53;;;13.83;100.00
7660;BME280;3872;47.902;8.162;2023-05-12T05:43:48;91527.72;;;13.55;100.00
7660;BME280;3872;47.902;8.162;2023-05-12T05:46:16;91520.44;;;13.94;100.00
7660;BME280;3872;47.902;8.162;2023-05-12T05:48:42;91527.09;;;13.79;100.00
7660;BME280;3872;47.902;8.162;2023-05-12T05:51:10;91525.84;;;13.56;100.00
7660;BME280;3872;47.902;8.162;2023-05-12T05:53:37;91529.06;;;13.61;100.00
7660;BME280;3872;47.902;8.162;2023-05-12T05:56:04;91527.00;;;13.38;100.00
7660;BME280;3872;47.902;8.162;2023-05-12T05:58:31;91529.00;;;12.30;100.00
7660;BME280;3872;47.902;8.162;2023-05-12T06:01:00;91535.63;;;13.85;100.00
7660;BME280;3872;47.902;8.162;2023-05-12T06:03:28;91526.16;;;14.04;100.00
7660;BME280;3872;47.902;8.162;2023-05-12T06:05:55;91522.97;;;14.32;100.00
7660;BME280;3872;47.902;8.162;2023-05-12T06:08:22;91521.69;;;14.71;100.00
7660;BME280;3872;47.902;8.162;2023-05-12T06:10:48;91524.22;;;14.55;100.00
7660;BME280;3872;47.902;8.162;2023-05-12T06:13:16;91524.63;;;14.57;100.00
7660;BME280;3872;47.902;8.162;2023-05-12T06:15:43;91528.16;;;14.82;100.00
7660;BME280;3872;47.902;8.162;2023-05-12T06:18:10;91533.81;;;13.77;100.00
7660;BME280;3872;47.902;8.162;2023-05-12T06:20:38;91539.69;;;13.15;100.00
7660;BME280;3872;47.902;8.162;2023-05-12T06:23:05;91532.22;;;13.84;100.00
7660;BME280;3872;47.902;8.162;2023-05-12T06:25:32;91522.47;;;14.71;100.00
7660;BME280;3872;47.902;8.162;2023-05-12T06:27:59;91531.66;;;14.74;100.00
7660;BME280;3872;47.902;8.162;2023-05-12T06:30:26;91527.59;;;14.76;100.00
7660;BME280;3872;47.902;8.162;2023-05-12T06:32:54;91528.56;;;15.78;93.99
7660;BME280;3872;47.902;8.162;2023-05-12T06:35:21;91534.00;;;15.57;93.34
7660;BME280;3872;47.902;8.162;2023-05-12T06:37:49;91532.75;;;15.30;92.29
7660;BME280;3872;47.902;8.162;2023-05-12T06:40:15;91525.94;;;15.90;84.47
7660;BME280;3872;47.902;8.162;2023-05-12T06:42:42;91539.91;;;13.39;100.00
7660;BME280;3872;47.902;8.162;2023-05-12T06:45:09;91539.88;;;13.48;100.00
7660;BME280;3872;47.902;8.162;2023-05-12T06:47:37;91542.28;;;14.11;100.00
7660;BME280;3872;47.902;8.162;2023-05-12T06:50:05;91528.72;;;15.00;96.81
7660;BME280;3872;47.902;8.162;2023-05-12T06:52:32;91535.31;;;15.26;93.16
7660;BME280;3872;47.902;8.162;2023-05-12T06:55:00;91532.19;;;15.49;89.64
7660;BME280;3872;47.902;8.162;2023-05-12T06:57:27;91539.59;;;14.41;99.96
7660;BME280;3872;47.902;8.162;2023-05-12T06:59:53;91540.41;;;14.86;93.19
7660;BME280;3872;47.902;8.162;2023-05-12T07:02:20;91527.72;;;15.61;86.14
7660;BME280;3872;47.902;8.162;2023-05-12T07:04:46;91530.78;;;15.88;82.37
7660;BME280;3872;47.902;8.162;2023-05-12T07:07:13;91529.69;;;15.40;85.50
7660;BME280;3872;47.902;8.162;2023-05-12T07:09:39;91539.03;;;14.68;88.99
7660;BME280;3872;47.902;8.162;2023-05-12T07:12:08;91536.84;;;16.13;79.88
7660;BME280;3872;47.902;8.162;2023-05-12T07:14:35;91541.97;;;14.13;91.61
7660;BME280;3872;47.902;8.162;2023-05-12T07:17:01;91536.97;;;14.86;88.03
7660;BME280;3872;47.902;8.162;2023-05-12T07:19:28;91534.38;;;14.98;86.60
7660;BME280;3872;47.902;8.162;2023-05-12T07:21:54;91525.41;;;14.91;85.32
7660;BME280;3872;47.902;8.162;2023-05-12T07:24:22;91538.38;;;15.16;81.66
7660;BME280;3872;47.902;8.162;2023-05-12T07:26:49;91531.19;;;15.05;82.94
7660;BME280;3872;47.902;8.162;2023-05-12T07:29:18;91530.16;;;15.66;77.30
7660;BME280;3872;47.902;8.162;2023-05-12T07:31:45;91530.69;;;16.76;68.14
7660;BME280;3872;47.902;8.162;2023-05-12T07:34:11;91530.34;;;16.38;72.41
7660;BME280;3872;47.902;8.162;2023-05-12T07:36:39;91533.16;;;16.69;70.05
7660;BME280;3872;47.902;8.162;2023-05-12T07:39:05;91526.34;;;16.44;73.40
7660;BME280;3872;47.902;8.162;2023-05-12T07:41:32;91525.31;;;16.61;74.96
7660;BME280;3872;47.902;8.162;2023-05-12T07:43:58;91518.88;;;16.90;71.15
7660;BME280;3872;47.902;8.162;2023-05-12T07:46:26;91519.34;;;16.24;82.14
7660;BME280;3872;47.902;8.162;2023-05-12T07:48:53;91519.19;;;16.72;73.36
7660;BME280;3872;47.902;8.162;2023-05-12T07:51:19;91519.84;;;18.26;60.38
7660;BME280;3872;47.902;8.162;2023-05-12T07:53:46;91512.56;;;17.73;59.74
7660;BME280;3872;47.902;8.162;2023-05-12T07:56:13;91517.63;;;17.78;60.61
7660;BME280;3872;47.902;8.162;2023-05-12T07:58:40;91523.56;;;16.80;67.88
7660;BME280;3872;47.902;8.162;2023-05-12T08:01:07;91517.16;;;16.81;65.08
7660;BME280;3872;47.902;8.162;2023-05-12T08:03:35;91509.56;;;17.58;59.41
7660;BME280;3872;47.902;8.162;2023-05-12T08:06:02;91513.84;;;17.94;54.40
7660;BME280;3872;47.902;8.162;2023-05-12T08:08:30;91509.25;;;18.30;52.37
7660;BME280;3872;47.902;8.162;2023-05-12T08:10:56;91514.22;;;15.66;59.96
7660;BME280;3872;47.902;8.162;2023-05-12T08:13:23;91516.00;;;14.93;67.90
7660;BME280;3872;47.902;8.162;2023-05-12T08:15:50;91513.16;;;16.20;61.10
7660;BME280;3872;47.902;8.162;2023-05-12T08:18:17;91521.03;;;14.62;70.61
7660;BME280;3872;47.902;8.162;2023-05-12T08:20:47;91517.63;;;16.71;60.63
7660;BME280;3872;47.902;8.162;2023-05-12T08:23:15;91520.09;;;16.64;63.54
7660;BME280;3872;47.902;8.162;2023-05-12T08:25:41;91509.69;;;16.87;59.74
7660;BME280;3872;47.902;8.162;2023-05-12T08:28:08;91521.91;;;15.35;70.67
7660;BME280;3872;47.902;8.162;2023-05-12T08:30:35;91523.09;;;14.89;78.61
7660;BME280;3872;47.902;8.162;2023-05-12T08:33:02;91538.53;;;13.33;90.92
7660;BME280;3872;47.902;8.162;2023-05-12T08:35:29;91532.00;;;14.10;91.61
7660;BME280;3872;47.902;8.162;2023-05-12T08:37:57;91529.56;;;14.26;84.78
7660;BME280;3872;47.902;8.162;2023-05-12T08:40:24;91526.22;;;15.03;79.87
7660;BME280;3872;47.902;8.162;2023-05-12T08:43:00;91529.63;;;16.25;68.83
7660;BME280;3872;47.902;8.162;2023-05-12T08:45:30;91531.28;;;15.08;84.15
7660;BME280;3872;47.902;8.162;2023-05-12T08:47:58;91539.81;;;14.69;87.73
7660;BME280;3872;47.902;8.162;2023-05-12T08:50:25;91531.31;;;15.45;80.81
7660;BME280;3872;47.902;8.162;2023-05-12T08:52:52;91536.22;;;15.55;81.40
7660;BME280;3872;47.902;8.162;2023-05-12T08:55:20;91528.91;;;15.64;82.68
7660;BME280;3872;47.902;8.162;2023-05-12T08:57:47;91538.78;;;15.06;92.77
7660;BME280;3872;47.902;8.162;2023-05-12T09:00:15;91542.34;;;15.10;91.06
7660;BME280;3872;47.902;8.162;2023-05-12T09:02:42;91537.19;;;15.87;81.72
7660;BME280;3872;47.902;8.162;2023-05-12T09:05:09;91545.75;;;15.56;84.70
7660;BME280;3872;47.902;8.162;2023-05-12T09:07:39;91548.66;;;15.42;84.03
7660;BME280;3872;47.902;8.162;2023-05-12T09:10:11;91549.03;;;15.89;81.03
7660;BME280;3872;47.902;8.162;2023-05-12T09:12:41;91551.91;;;15.48;92.66
7660;BME280;3872;47.902;8.162;2023-05-12T09:15:15;91547.63;;;15.55;90.04
7660;BME280;3872;47.902;8.162;2023-05-12T09:17:43;91553.41;;;15.49;91.09
7660;BME280;3872;47.902;8.162;2023-05-12T09:20:11;91558.25;;;15.35;93.56
7660;BME280;3872;47.902;8.162;2023-05-12T09:22:38;91560.91;;;15.35;96.61
7660;BME280;3872;47.902;8.162;2023-05-12T09:25:13;91560.16;;;15.46;95.50
7660;BME280;3872;47.902;8.162;2023-05-12T09:27:42;91565.84;;;14.25;100.00
7660;BME280;3872;47.902;8.162;2023-05-12T09:30:10;91563.38;;;13.99;100.00
7660;BME280;3872;47.902;8.162;2023-05-12T09:32:36;91569.22;;;14.88;100.00
7660;BME280;3872;47.902;8.162;2023-05-12T09:35:04;91567.84;;;15.15;100.00
7660;BME280;3872;47.902;8.162;2023-05-12T09:37:32;91564.31;;;15.68;100.00
7660;BME280;3872;47.902;8.162;2023-05-12T09:39:59;91563.41;;;15.88;100.00
7660;BME280;3872;47.902;8.162;2023-05-12T09:42:28;91567.69;;;13.54;100.00
7660;BME280;3872;47.902;8.162;2023-05-12T09:44:59;91570.09;;;13.97;100.00
7660;BME280;3872;47.902;8.162;2023-05-12T09:47:33;91564.78;;;14.80;100.00
7660;BME280;3872;47.902;8.162;2023-05-12T09:50:01;91562.28;;;14.96;100.00
7660;BME280;3872;47.902;8.162;2023-05-12T09:52:28;91563.06;;;15.78;100.00
7660;BME280;3872;47.902;8.162;2023-05-12T09:55:03;91559.56;;;16.38;96.31
7660;BME280;3872;47.902;8.162;2023-05-12T09:57:34;91565.06;;;13.75;100.00
7660;BME280;3872;47.902;8.162;2023-05-12T10:00:03;91562.91;;;14.47;100.00
7660;BME280;3872;47.902;8.162;2023-05-12T10:02:33;91564.53;;;14.10;100.00
7660;BME280;3872;47.902;8.162;2023-05-12T10:05:04;91558.66;;;14.67;100.00
7660;BME280;3872;47.902;8.162;2023-05-12T10:07:32;91558.03;;;15.27;100.00
7660;BME280;3872;47.902;8.162;2023-05-12T10:10:01;91559.63;;;15.41;100.00
7660;BME280;3872;47.902;8.162;2023-05-12T10:12:29;91546.91;;;16.07;93.25
7660;BME280;3872;47.902;8.162;2023-05-12T10:14:56;91546.28;;;16.38;91.77
7660;BME280;3872;47.902;8.162;2023-05-12T10:17:25;91546.66;;;16.64;88.09
7660;BME280;3872;47.902;8.162;2023-05-12T10:19:52;91540.72;;;16.83;89.29
7660;BME280;3872;47.902;8.162;2023-05-12T10:22:20;91549.22;;;16.61;79.24
7660;BME280;3872;47.902;8.162;2023-05-12T10:24:47;91542.72;;;16.46;80.16
7660;BME280;3872;47.902;8.162;2023-05-12T10:27:14;91540.84;;;16.34;84.22
7660;BME280;3872;47.902;8.162;2023-05-12T10:29:41;91550.00;;;16.49;80.12
7660;BME280;3872;47.902;8.162;2023-05-12T10:32:08;91541.88;;;16.98;84.79
7660;BME280;3872;47.902;8.162;2023-05-12T10:34:38;91548.94;;;17.37;79.25
7660;BME280;3872;47.902;8.162;2023-05-12T10:37:08;91541.38;;;17.08;81.05
7660;BME280;3872;47.902;8.162;2023-05-12T10:39:36;91538.41;;;17.25;80.25
7660;BME280;3872;47.902;8.162;2023-05-12T10:42:04;91539.03;;;17.81;76.11
7660;BME280;3872;47.902;8.162;2023-05-12T10:44:31;91535.31;;;17.23;74.13
7660;BME280;3872;47.902;8.162;2023-05-12T10:46:58;91535.22;;;16.36;88.10
7660;BME280;3872;47.902;8.162;2023-05-12T10:49:31;91533.09;;;17.72;73.88
7660;BME280;3872;47.902;8.162;2023-05-12T10:51:59;91532.53;;;17.04;75.24
7660;BME280;3872;47.902;8.162;2023-05-12T10:54:26;91532.41;;;17.75;69.64
7660;BME280;3872;47.902;8.162;2023-05-12T10:56:57;91529.31;;;17.89;62.02
7660;BME280;3872;47.902;8.162;2023-05-12T10:59:24;91519.44;;;18.24;67.43
7660;BME280;3872;47.902;8.162;2023-05-12T11:01:57;91519.41;;;18.78;66.96
7660;BME280;3872;47.902;8.162;2023-05-12T11:04:35;91520.94;;;18.80;64.16
7660;BME280;3872;47.902;8.162;2023-05-12T11:07:06;91529.78;;;18.10;68.11
7660;BME280;3872;47.902;8.162;2023-05-12T11:09:34;91523.38;;;19.30;56.05
7660;BME280;3872;47.902;8.162;2023-05-12T11:12:01;91523.50;;;18.37;61.87
7660;BME280;3872;47.902;8.162;2023-05-12T11:14:28;91520.66;;;19.04;57.74
7660;BME280;3872;47.902;8.162;2023-05-12T11:16:55;91527.69;;;19.15;57.37
7660;BME280;3872;47.902;8.162;2023-05-12T11:19:21;91524.81;;;19.47;60.83
7660;BME280;3872;47.902;8.162;2023-05-12T11:21:48;91527.06;;;18.26;59.11
7660;BME280;3872;47.902;8.162;2023-05-12T11:24:16;91526.28;;;18.80;63.92
7660;BME280;3872;47.902;8.162;2023-05-12T11:26:42;91536.94;;;17.59;66.91
7660;BME280;3872;47.902;8.162;2023-05-12T11:29:09;91527.47;;;18.82;66.75
7660;BME280;3872;47.902;8.162;2023-05-12T11:31:35;91525.50;;;18.60;63.53
7660;BME280;3872;47.902;8.162;2023-05-12T11:34:04;91526.31;;;19.02;60.75
7660;BME280;3872;47.902;8.162;2023-05-12T11:36:37;91528.88;;;18.95;60.94
7660;BME280;3872;47.902;8.162;2023-05-12T11:39:04;91526.50;;;19.55;62.34
7660;BME280;3872;47.902;8.162;2023-05-12T11:41:32;91527.06;;;19.45;60.69
7660;BME280;3872;47.902;8.162;2023-05-12T11:43:59;91529.75;;;18.26;64.83
7660;BME280;3872;47.902;8.162;2023-05-12T11:46:37;91527.91;;;19.07;68.93
7660;BME280;3872;47.902;8.162;2023-05-12T11:49:09;91525.78;;;18.74;59.39
7660;BME280;3872;47.902;8.162;2023-05-12T11:51:40;91530.72;;;17.08;57.59
7660;BME280;3872;47.902;8.162;2023-05-12T11:54:07;91528.69;;;18.50;53.42
7660;BME280;3872;47.902;8.162;2023-05-12T11:56:35;91519.59;;;18.70;56.86
7660;BME280;3872;47.902;8.162;2023-05-12T11:59:02;91539.09;;;17.85;62.04
7660;BME280;3872;47.902;8.162;2023-05-12T12:01:28;91537.13;;;17.82;63.63
7660;BME280;3872;47.902;8.162;2023-05-12T12:03:55;91521.03;;;19.06;57.48
7660;BME280;3872;47.902;8.162;2023-05-12T12:06:21;91532.66;;;18.56;51.82
7660;BME280;3872;47.902;8.162;2023-05-12T12:08:51;91528.50;;;18.97;50.98
7660;BME280;3872;47.902;8.162;2023-05-12T12:11:18;91535.44;;;18.09;50.72
7660;BME280;3872;47.902;8.162;2023-05-12T12:13:50;91522.91;;;18.83;51.34
7660;BME280;3872;47.902;8.162;2023-05-12T12:16:24;91526.13;;;20.06;49.89
7660;BME280;3872;47.902;8.162;2023-05-12T12:18:51;91526.59;;;19.39;50.84
7660;BME280;3872;47.902;8.162;2023-05-12T12:21:19;91528.22;;;20.19;46.31
7660;BME280;3872;47.902;8.162;2023-05-12T12:23:45;91534.75;;;17.02;53.47
7660;BME280;3872;47.902;8.162;2023-05-12T12:26:12;91528.41;;;19.12;49.93
7660;BME280;3872;47.902;8.162;2023-05-12T12:28:41;91535.34;;;19.59;49.14
7660;BME280;3872;47.902;8.162;2023-05-12T12:31:09;91541.81;;;19.58;49.24
7660;BME280;3872;47.902;8.162;2023-05-12T12:33:35;91544.16;;;17.58;62.62
7660;BME280;3872;47.902;8.162;2023-05-12T12:36:02;91543.06;;;17.75;60.14
7660;BME280;3872;47.902;8.162;2023-05-12T12:38:30;91551.22;;;17.82;62.62
7660;BME280;3872;47.902;8.162;2023-05-12T12:40:56;91558.66;;;17.45;63.60
7660;BME280;3872;47.902;8.162;2023-05-12T12:43:23;91552.81;;;17.87;63.24
7660;BME280;3872;47.902;8.162;2023-05-12T12:45:50;91552.09;;;18.06;59.54
7660;BME280;3872;47.902;8.162;2023-05-12T12:48:18;91556.59;;;17.70;62.54
7660;BME280;3872;47.902;8.162;2023-05-12T12:50:46;91548.31;;;16.57;66.23
7660;BME280;3872;47.902;8.162;2023-05-12T12:53:13;91545.94;;;16.79;66.14
7660;BME280;3872;47.902;8.162;2023-05-12T12:55:40;91546.81;;;16.83;62.49
7660;BME280;3872;47.902;8.162;2023-05-12T12:58:07;91551.88;;;17.95;56.93
7660;BME280;3872;47.902;8.162;2023-05-12T13:00:35;91543.38;;;18.59;52.99
7660;BME280;3872;47.902;8.162;2023-05-12T13:03:02;91545.00;;;18.29;56.60
7660;BME280;3872;47.902;8.162;2023-05-12T13:05:30;91565.03;;;16.17;75.28
7660;BME280;3872;47.902;8.162;2023-05-12T13:07:56;91560.19;;;15.95;75.68
7660;BME280;3872;47.902;8.162;2023-05-12T13:10:23;91565.25;;;16.24;72.77
7660;BME280;3872;47.902;8.162;2023-05-12T13:12:49;91562.75;;;17.11;69.02
7660;BME280;3872;47.902;8.162;2023-05-12T13:15:16;91556.63;;;16.67;68.48
7660;BME280;3872;47.902;8.162;2023-05-12T13:17:43;91554.91;;;16.47;70.05